Time;durP1;ratioP1;P1;durP2;ratioP2;P2;SDS_P1;SDS_P2;PMS_P1;PMS_P2;Temp;Humidity;BMP_temperature;BMP_pressure;BME280_temperature;BME280_humidity;BME280_pressure;Samples;Min_cycle;Max_cycle;Signal;HPM_P1;HPM_P2
2021/07/08 11:35:07;;;;;;;8.18;6.50;;;;;;;32.61;31.21;94397.81;4652877;27;20052;-72
2021/07/08 11:37:44;;;;;;;8.80;6.38;;;;;;;32.69;30.65;94397.16;4897140;29;20105;-71
2021/07/08 11:40:17;;;;;;;11.32;6.68;;;;;;;32.71;30.18;94389.19;4897226;29;20052;-72
2021/07/08 11:42:46;;;;;;;7.65;5.88;;;;;;;32.75;31.54;94389.06;4897306;29;20830;-72
2021/07/08 11:45:14;;;;;;;10.52;6.90;;;;;;;32.80;31.55;94390.50;4898280;29;20032;-71
2021/07/08 11:47:42;;;;;;;16.13;6.25;;;;;;;32.88;31.47;94391.81;4898329;29;20507;-71
2021/07/08 11:50:23;;;;;;;7.85;5.68;;;;;;;32.90;31.04;94384.63;4896835;29;20503;-71
2021/07/08 11:53:12;;;;;;;10.27;6.85;;;;;;;32.90;31.07;94384.63;4897340;29;20033;-71
2021/07/08 11:55:40;;;;;;;19.90;6.72;;;;;;;32.83;30.57;94376.59;4896380;29;20040;-70
2021/07/08 11:58:07;;;;;;;8.20;6.07;;;;;;;32.90;29.99;94384.63;4898201;29;20043;-71
2021/07/08 12:00:37;;;;;;;8.15;5.90;;;;;;;32.92;28.79;94382.19;4896568;29;20036;-71
2021/07/08 12:03:17;;;;;;;7.75;5.57;;;;;;;32.74;28.44;94382.00;4898386;29;20035;-71
2021/07/08 12:05:42;;;;;;;8.43;5.88;;;;;;;32.75;28.42;94376.06;4896883;29;20415;-71
2021/07/08 12:08:08;;;;;;;9.38;5.95;;;;;;;32.66;29.48;94372.44;4897983;29;20029;-72
2021/07/08 12:10:40;;;;;;;9.32;6.30;;;;;;;32.74;28.68;94360.69;4895253;29;20595;-72
2021/07/08 12:13:05;;;;;;;11.32;5.55;;;;;;;32.88;29.31;94367.75;4896539;29;20083;-71
2021/07/08 12:15:31;;;;;;;9.70;5.75;;;;;;;33.11;29.42;94369.34;4896396;29;20488;-72
2021/07/08 12:17:59;;;;;;;16.20;6.18;;;;;;;33.33;28.74;94366.63;4896679;29;20116;-73
2021/07/08 12:20:31;;;;;;;21.25;5.75;;;;;;;33.56;28.21;94370.16;4897616;29;20020;-72
2021/07/08 12:23:04;;;;;;;7.15;5.25;;;;;;;33.72;27.48;94367.22;4897934;29;20492;-72
2021/07/08 12:25:31;;;;;;;8.23;6.50;;;;;;;33.87;27.15;94363.94;4896094;29;20404;-71
2021/07/08 12:27:57;;;;;;;9.00;6.28;;;;;;;33.99;27.04;94371.38;4897823;29;20036;-72
2021/07/08 12:30:28;;;;;;;13.02;5.97;;;;;;;33.91;27.49;94375.63;4897528;29;20172;-73
2021/07/08 12:33:11;;;;;;;8.75;5.45;;;;;;;33.91;26.24;94365.34;4898089;29;20479;-79
2021/07/08 12:35:48;;;;;;;10.25;5.82;;;;;;;34.06;25.29;94362.06;4899304;29;20048;-78
2021/07/08 12:38:18;;;;;;;6.45;5.32;;;;;;;34.10;26.38;94354.38;4900496;29;20546;-78
2021/07/08 12:40:46;;;;;;;9.88;5.22;;;;;;;34.29;26.16;94355.25;4899393;29;20037;-81
2021/07/08 12:43:15;;;;;;;11.57;5.93;;;;;;;34.43;25.76;94353.94;4896983;29;20028;-76
2021/07/08 12:45:41;;;;;;;7.53;5.07;;;;;;;34.56;24.98;94360.91;4897161;29;20116;-77
2021/07/08 12:48:12;;;;;;;10.43;4.93;;;;;;;34.52;24.42;94357.50;4898174;29;20033;-76
2021/07/08 12:50:43;;;;;;;15.17;6.17;;;;;;;34.36;25.52;94355.75;4898659;29;20115;-77
2021/07/08 12:53:14;;;;;;;16.73;5.78;;;;;;;34.60;26.20;94357.97;4899122;29;20285;-77
2021/07/08 12:55:55;;;;;;;11.93;6.32;;;;;;;34.82;25.81;94357.13;4897757;29;20131;-78
2021/07/08 12:58:24;;;;;;;9.23;6.60;;;;;;;35.11;25.51;94356.69;4898469;29;20032;-76
2021/07/08 13:00:51;;;;;;;13.30;6.15;;;;;;;35.04;25.19;94363.31;4899730;29;20029;-78
2021/07/08 13:03:20;;;;;;;16.88;5.88;;;;;;;35.06;25.30;94369.16;4906116;29;20040;-80
2021/07/08 13:05:47;;;;;;;8.95;5.57;;;;;;;34.97;24.85;94356.06;4903575;29;20032;-79
2021/07/08 13:08:15;;;;;;;8.43;4.93;;;;;;;35.03;24.73;94361.78;4908228;29;20420;-78
2021/07/08 13:10:45;;;;;;;22.38;7.75;;;;;;;35.25;24.90;94356.09;4911002;29;20028;-79
2021/07/08 13:13:23;;;;;;;11.60;6.15;;;;;;;35.51;24.75;94356.56;4898071;29;20527;-77
2021/07/08 13:15:49;;;;;;;9.18;4.80;;;;;;;35.90;23.93;94351.28;4903540;29;20028;-77
2021/07/08 13:18:17;;;;;;;8.30;5.43;;;;;;;36.23;23.74;94345.06;4901718;29;20033;-79
2021/07/08 13:20:49;;;;;;;8.68;5.13;;;;;;;36.87;24.42;94345.97;4896885;29;20033;-76
2021/07/08 13:23:18;;;;;;;10.30;5.03;;;;;;;37.81;22.74;94339.97;4897696;29;20051;-76
2021/07/08 13:25:48;;;;;;;7.72;4.65;;;;;;;38.22;22.06;94333.84;4896405;29;20051;-76
2021/07/08 13:28:25;;;;;;;9.68;5.53;;;;;;;37.94;21.56;94334.13;4896445;29;20107;-76
2021/07/08 13:31:02;;;;;;;7.95;5.05;;;;;;;37.45;22.85;94352.19;4896376;29;20063;-76
2021/07/08 13:33:49;;;;;;;9.32;6.03;;;;;;;37.56;22.07;94346.09;4896036;29;20048;-78
2021/07/08 13:36:18;;;;;;;5.43;4.53;;;;;;;38.38;20.66;94340.91;4910404;29;20575;-80
2021/07/08 13:38:50;;;;;;;6.30;4.60;;;;;;;39.19;20.28;94345.84;4904501;29;20040;-81
2021/07/08 13:41:18;;;;;;;7.93;5.35;;;;;;;39.72;19.50;94341.88;4900834;29;20028;-78
2021/07/08 13:43:47;;;;;;;9.73;5.03;;;;;;;40.23;19.68;94349.97;4898513;29;20037;-78
2021/07/08 13:46:23;;;;;;;10.77;5.85;;;;;;;41.11;18.84;94336.28;4900640;29;20465;-78
2021/07/08 13:48:54;;;;;;;14.60;4.93;;;;;;;41.66;18.20;94348.22;4897756;29;20028;-77
2021/07/08 13:51:21;;;;;;;8.52;4.90;;;;;;;42.43;16.93;94348.81;4900300;29;20028;-81
2021/07/08 13:53:47;;;;;;;10.40;4.32;;;;;;;42.13;17.47;94345.75;4898207;29;20029;-79
2021/07/08 13:56:17;;;;;;;7.60;5.13;;;;;;;41.59;18.05;94343.88;4903715;29;20266;-79
2021/07/08 13:58:43;;;;;;;13.25;5.50;;;;;;;42.03;17.92;94344.47;4899827;29;20024;-79
2021/07/08 14:01:09;;;;;;;6.00;4.43;;;;;;;41.93;17.95;94349.50;4898511;29;20029;-78
2021/07/08 14:03:35;;;;;;;10.10;5.57;;;;;;;41.24;18.28;94347.03;4899654;29;20028;-79
2021/07/08 14:06:00;;;;;;;9.75;4.97;;;;;;;40.43;18.82;94340.75;4895793;29;20036;-77
2021/07/08 14:08:31;;;;;;;9.77;4.70;;;;;;;39.58;19.90;94342.75;4895514;29;20047;-77
2021/07/08 14:10:56;;;;;;;9.82;4.78;;;;;;;38.92;20.86;94339.41;4896067;29;20524;-80
2021/07/08 14:13:22;;;;;;;7.88;4.88;;;;;;;38.44;21.67;94345.31;4895512;29;20048;-79
2021/07/08 14:15:47;;;;;;;10.40;5.32;;;;;;;38.32;22.12;94344.38;4896070;29;20172;-79
2021/07/08 14:18:13;;;;;;;17.38;6.13;;;;;;;38.45;21.90;94344.06;4896060;29;20028;-81
2021/07/08 14:20:38;;;;;;;11.00;5.35;;;;;;;39.13;21.41;94350.59;4895672;29;20035;-80
2021/07/08 14:23:04;;;;;;;8.43;4.97;;;;;;;39.94;20.55;94345.38;4895518;29;20131;-76
2021/07/08 14:25:29;;;;;;;9.15;5.05;;;;;;;40.80;19.10;94348.34;4895615;29;20096;-79
2021/07/08 14:27:55;;;;;;;8.15;4.55;;;;;;;41.61;17.95;94355.34;4896864;29;20476;-80
2021/07/08 14:30:22;;;;;;;8.98;4.38;;;;;;;42.45;17.35;94346.25;4897667;29;20456;-79
2021/07/08 14:32:48;;;;;;;5.75;4.32;;;;;;;43.31;16.33;94338.41;4896959;29;20063;-78
2021/07/08 14:35:13;;;;;;;13.10;4.55;;;;;;;44.02;15.64;94340.56;4895694;29;20496;-81
2021/07/08 14:37:39;;;;;;;5.22;4.07;;;;;;;44.15;14.67;94334.34;4898904;29;20036;-82
2021/07/08 14:40:05;;;;;;;5.55;4.43;;;;;;;44.35;14.99;94345.16;4896771;29;20036;-83
2021/07/08 14:43:02;;;;;;;8.50;3.95;;;;;;;44.89;14.44;94338.03;4896043;29;20032;-81
2021/07/08 14:45:29;;;;;;;8.07;3.95;;;;;;;45.56;13.97;94335.72;4895649;29;20039;-79
2021/07/08 14:47:55;;;;;;;6.25;3.72;;;;;;;46.19;13.23;94344.81;4897249;29;20059;-81
2021/07/08 14:50:20;;;;;;;5.90;4.03;;;;;;;46.54;12.54;94340.91;4895289;29;20036;-79
2021/07/08 14:52:46;;;;;;;8.20;3.50;;;;;;;46.67;12.01;94330.94;4895815;29;20034;-77
2021/07/08 14:55:13;;;;;;;5.30;3.67;;;;;;;46.43;12.56;94339.03;4895637;29;20131;-78
2021/07/08 14:57:38;;;;;;;13.30;3.95;;;;;;;46.76;12.35;94339.72;4895062;29;20100;-80
2021/07/08 15:00:06;;;;;;;6.93;3.75;;;;;;;46.97;12.76;94341.94;4895309;29;20060;-80
2021/07/08 15:02:31;;;;;;;7.18;3.72;;;;;;;47.24;12.15;94339.88;4895068;29;20057;-81
2021/07/08 15:04:57;;;;;;;11.25;3.28;;;;;;;46.86;11.89;94336.50;4896916;29;20032;-81
2021/07/08 15:07:22;;;;;;;4.10;3.30;;;;;;;47.08;11.72;94340.94;4895186;29;20397;-83
2021/07/08 15:09:49;;;;;;;4.47;3.13;;;;;;;47.06;12.58;94335.84;4900112;29;20036;-77
2021/07/08 15:12:16;;;;;;;6.28;3.13;;;;;;;47.15;12.17;94340.28;4894644;29;20025;-82
2021/07/08 15:14:42;;;;;;;5.93;3.13;;;;;;;47.10;12.52;94335.50;4895120;29;20373;-78
2021/07/08 15:17:09;;;;;;;9.48;4.13;;;;;;;47.32;12.06;94337.16;4895922;29;20602;-79
2021/07/08 15:19:35;;;;;;;6.00;3.45;;;;;;;46.92;12.07;94328.69;4897361;29;20029;-79
2021/07/08 15:22:00;;;;;;;6.30;3.67;;;;;;;46.95;12.20;94331.19;4895260;29;20557;-77
2021/07/08 15:24:25;;;;;;;4.95;3.10;;;;;;;47.02;12.02;94329.75;4894899;29;20021;-79
2021/07/08 15:26:51;;;;;;;11.02;3.60;;;;;;;47.33;12.44;94338.69;4894659;29;20047;-76
2021/07/08 15:29:16;;;;;;;6.97;3.72;;;;;;;47.42;12.35;94333.31;4894208;29;20036;-79
2021/07/08 15:31:42;;;;;;;5.28;3.22;;;;;;;47.56;12.28;94336.91;4895235;29;20029;-79
2021/07/08 15:34:09;;;;;;;8.88;3.33;;;;;;;47.33;12.87;94349.97;4891999;29;20063;-79
2021/07/08 15:36:37;;;;;;;5.53;3.40;;;;;;;47.45;12.70;94331.47;4896639;29;20036;-80
2021/07/08 15:39:07;;;;;;;6.80;3.55;;;;;;;47.02;12.81;94335.41;4894902;29;20031;-79
2021/07/08 15:41:33;;;;;;;10.45;3.35;;;;;;;47.01;12.75;94339.53;4894925;29;20033;-78
2021/07/08 15:43:59;;;;;;;7.13;3.50;;;;;;;47.15;12.43;94346.69;4894850;29;20055;-79
2021/07/08 15:46:25;;;;;;;6.32;3.20;;;;;;;47.17;12.14;94338.47;4897982;29;20484;-80
2021/07/08 15:48:51;;;;;;;12.35;2.83;;;;;;;47.22;12.48;94334.75;4898279;29;20626;-79
2021/07/08 15:51:18;;;;;;;5.00;3.35;;;;;;;47.36;12.49;94343.22;4898378;29;20087;-79
2021/07/08 15:53:44;;;;;;;5.05;3.42;;;;;;;46.95;13.06;94344.53;4898847;29;20029;-80
2021/07/08 15:56:10;;;;;;;6.15;3.00;;;;;;;46.29;13.54;94343.09;4899569;29;20035;-80
2021/07/08 15:58:38;;;;;;;3.95;3.55;;;;;;;45.93;14.09;94331.34;4897693;29;20024;-80
2021/07/08 16:01:04;;;;;;;8.50;3.60;;;;;;;45.68;14.22;94341.94;4898041;29;20032;-79
2021/07/08 16:03:30;;;;;;;7.45;3.60;;;;;;;44.98;14.47;94332.03;4904054;29;20519;-79
2021/07/08 16:05:55;;;;;;;4.97;3.50;;;;;;;44.60;15.02;94333.97;4898206;29;20451;-78
2021/07/08 16:08:20;;;;;;;9.95;3.67;;;;;;;44.51;14.87;94334.31;4897954;29;20099;-75
2021/07/08 16:10:46;;;;;;;13.27;4.00;;;;;;;44.47;15.29;94337.41;4899422;29;20016;-75
2021/07/08 16:13:11;;;;;;;11.18;3.90;;;;;;;43.98;15.05;94337.28;4897950;29;20127;-75
2021/07/08 16:15:38;;;;;;;7.13;3.30;;;;;;;43.36;15.67;94335.59;4899161;29;20032;-79
2021/07/08 16:18:04;;;;;;;10.30;3.60;;;;;;;42.97;16.16;94339.31;4898628;29;20036;-79
2021/07/08 16:20:29;;;;;;;9.88;3.75;;;;;;;42.58;16.87;94337.31;4896627;29;20415;-80
2021/07/08 16:22:55;;;;;;;8.68;3.63;;;;;;;42.15;17.01;94340.38;4899668;29;20036;-79
2021/07/08 16:25:20;;;;;;;4.78;3.65;;;;;;;41.78;17.78;94341.38;4900646;29;20492;-77
2021/07/08 16:27:46;;;;;;;8.70;3.78;;;;;;;41.35;17.87;94346.34;4907576;29;20028;-80
2021/07/08 16:30:14;;;;;;;6.82;3.83;;;;;;;40.81;18.45;94342.28;4902334;29;20036;-79
2021/07/08 16:32:39;;;;;;;17.45;4.38;;;;;;;40.50;19.01;94340.28;4912742;29;20488;-79
2021/07/08 16:35:06;;;;;;;4.35;3.75;;;;;;;40.27;19.22;94345.66;4905337;29;20104;-79
2021/07/08 16:37:34;;;;;;;7.03;4.13;;;;;;;39.80;19.96;94341.44;4905499;29;20024;-79
2021/07/08 16:39:59;;;;;;;5.03;3.53;;;;;;;39.06;21.41;94342.63;4910469;29;20028;-79
2021/07/08 16:42:25;;;;;;;9.82;4.10;;;;;;;38.41;21.97;94345.50;4901176;29;20412;-79
2021/07/08 16:44:51;;;;;;;6.22;4.22;;;;;;;37.72;23.05;94349.19;4899746;29;20032;-79
2021/07/08 16:47:16;;;;;;;11.40;3.88;;;;;;;37.54;23.18;94346.56;4896809;29;20033;-79
2021/07/08 16:49:42;;;;;;;8.77;4.07;;;;;;;37.54;23.67;94349.34;4897242;29;20033;-77
2021/07/08 16:52:08;;;;;;;5.47;4.03;;;;;;;37.53;23.78;94347.78;4896920;29;20025;-81
2021/07/08 16:54:34;;;;;;;6.40;4.18;;;;;;;37.57;23.73;94353.94;4896670;29;20032;-78
2021/07/08 16:57:02;;;;;;;8.90;4.20;;;;;;;37.75;23.27;94355.81;4908282;29;20405;-79
2021/07/08 16:59:27;;;;;;;6.47;4.25;;;;;;;37.96;23.26;94356.66;4896166;29;20024;-79
2021/07/08 17:01:53;;;;;;;9.23;4.60;;;;;;;38.03;23.00;94356.28;4897361;29;20127;-79
2021/07/08 17:04:18;;;;;;;7.38;4.07;;;;;;;38.13;22.65;94352.19;4896906;29;20036;-80
2021/07/08 17:06:44;;;;;;;7.78;4.32;;;;;;;38.04;23.02;94363.38;4896476;29;20083;-80
2021/07/08 17:09:09;;;;;;;5.78;3.88;;;;;;;37.72;23.34;94354.75;4896204;29;20480;-77
2021/07/08 17:11:35;;;;;;;6.93;4.00;;;;;;;37.25;23.73;94373.06;4896504;29;20020;-78
2021/07/08 17:14:00;;;;;;;12.00;3.97;;;;;;;36.81;24.37;94370.84;4898592;29;20039;-78
2021/07/08 17:16:28;;;;;;;12.73;4.45;;;;;;;36.42;25.60;94365.16;4896923;29;20032;-78
2021/07/08 17:18:54;;;;;;;8.07;4.35;;;;;;;36.00;26.16;94365.91;4897908;29;20040;-79
2021/07/08 17:21:20;;;;;;;10.68;4.50;;;;;;;35.55;26.41;94375.81;4896650;29;20039;-77
2021/07/08 17:23:45;;;;;;;7.82;4.53;;;;;;;35.20;27.36;94373.34;4897865;29;20500;-78
2021/07/08 17:26:11;;;;;;;12.88;4.38;;;;;;;34.81;27.82;94372.97;4897585;29;20520;-79
2021/07/08 17:28:36;;;;;;;9.52;4.95;;;;;;;34.42;28.39;94380.84;4896520;29;20035;-80
2021/07/08 17:31:02;;;;;;;12.25;4.82;;;;;;;34.01;29.04;94374.44;4897755;29;20432;-80
2021/07/08 17:33:27;;;;;;;8.50;5.60;;;;;;;33.58;30.00;94381.53;4896260;29;20032;-80
2021/07/08 17:35:53;;;;;;;10.50;5.00;;;;;;;33.21;30.48;94386.78;4895659;29;20044;-82
2021/07/08 17:38:19;;;;;;;6.28;4.75;;;;;;;32.95;31.12;94386.03;4900336;29;20028;-78
2021/07/08 17:40:45;;;;;;;7.82;4.88;;;;;;;32.66;31.98;94377.94;4899095;29;20044;-79
2021/07/08 17:43:10;;;;;;;14.75;5.97;;;;;;;32.42;32.44;94392.06;4909078;29;20032;-79
2021/07/08 17:45:36;;;;;;;9.27;4.90;;;;;;;32.18;32.82;94392.38;4898289;29;20119;-80
2021/07/08 17:48:04;;;;;;;6.53;5.07;;;;;;;31.82;33.45;94391.88;4896749;29;20032;-80
2021/07/08 17:50:29;;;;;;;15.50;4.97;;;;;;;31.61;34.04;94393.22;4895121;29;20156;-78
2021/07/08 17:52:54;;;;;;;9.43;5.03;;;;;;;31.37;34.39;94388.72;4895360;29;20123;-80
2021/07/08 17:55:22;;;;;;;11.70;5.88;;;;;;;31.16;34.88;94389.28;4896000;29;20033;-79
2021/07/08 17:57:48;;;;;;;11.57;5.28;;;;;;;30.96;35.08;94394.94;4895360;29;20025;-79
2021/07/08 18:00:21;;;;;;;8.70;5.32;;;;;;;30.70;35.43;94402.22;4897622;29;20067;-79
2021/07/08 18:02:49;;;;;;;8.73;5.53;;;;;;;30.55;35.79;94396.28;4898140;29;20040;-82
2021/07/08 18:05:16;;;;;;;11.88;5.88;;;;;;;30.33;36.21;94404.25;4897832;29;20055;-82
2021/07/08 18:07:43;;;;;;;8.55;5.72;;;;;;;30.06;36.86;94412.66;4895738;29;20035;-79
2021/07/08 18:10:08;;;;;;;16.75;6.07;;;;;;;29.79;37.17;94416.38;4897686;29;20120;-79
2021/07/08 18:12:36;;;;;;;11.35;6.70;;;;;;;29.63;37.35;94424.50;4895569;29;20555;-80
2021/07/08 18:15:05;;;;;;;11.48;5.97;;;;;;;29.46;38.10;94423.66;4898012;29;20496;-78
2021/07/08 18:17:31;;;;;;;10.50;5.40;;;;;;;29.27;38.45;94439.69;4895202;29;20036;-78
2021/07/08 18:19:56;;;;;;;11.77;5.25;;;;;;;29.08;38.50;94435.66;4895624;29;20088;-77
2021/07/08 18:22:21;;;;;;;14.68;6.07;;;;;;;28.96;38.83;94437.06;4895263;29;20074;-79
2021/07/08 18:24:47;;;;;;;14.68;5.95;;;;;;;28.82;39.31;94440.00;4895458;29;20060;-77
2021/07/08 18:27:12;;;;;;;21.42;6.45;;;;;;;28.71;40.36;94448.41;4896683;29;20447;-79
2021/07/08 18:29:38;;;;;;;10.77;5.28;;;;;;;28.58;40.90;94448.22;4902044;29;20033;-78
2021/07/08 18:32:05;;;;;;;18.63;5.65;;;;;;;28.41;41.17;94449.22;4896177;29;20016;-76
2021/07/08 18:34:30;;;;;;;7.85;5.20;;;;;;;28.30;41.43;94451.34;4895679;29;20053;-79
2021/07/08 18:36:56;;;;;;;11.90;4.95;;;;;;;28.19;41.78;94456.97;4898296;29;20120;-79
2021/07/08 18:39:21;;;;;;;6.43;5.20;;;;;;;28.01;41.75;94459.97;4896232;29;20028;-77
2021/07/08 18:41:47;;;;;;;8.65;5.28;;;;;;;27.91;41.96;94449.91;4897338;29;20124;-77
2021/07/08 18:44:12;;;;;;;11.10;5.85;;;;;;;27.83;42.28;94462.88;4895033;29;20476;-77
2021/07/08 18:46:37;;;;;;;8.20;5.47;;;;;;;27.73;42.60;94461.03;4894922;29;20480;-79
2021/07/08 18:49:03;;;;;;;9.80;5.53;;;;;;;27.61;42.66;94457.63;4894623;29;20097;-78
2021/07/08 18:51:30;;;;;;;8.77;5.80;;;;;;;27.55;43.44;94470.22;4895674;29;20021;-75
2021/07/08 18:53:56;;;;;;;9.88;6.15;;;;;;;27.51;42.94;94472.22;4896539;29;20119;-78
2021/07/08 18:56:21;;;;;;;9.45;5.72;;;;;;;27.36;43.00;94474.34;4895762;29;20040;-76
2021/07/08 18:58:47;;;;;;;9.63;5.60;;;;;;;27.27;43.53;94473.25;4895205;29;20044;-78
2021/07/08 19:01:12;;;;;;;7.80;5.90;;;;;;;27.16;43.67;94478.78;4895111;29;20041;-77
2021/07/08 19:03:39;;;;;;;14.65;6.10;;;;;;;27.08;44.22;94483.53;4895232;29;20088;-77
2021/07/08 19:06:09;;;;;;;9.00;6.03;;;;;;;27.00;44.60;94471.88;4894950;29;20040;-77
2021/07/08 19:08:34;;;;;;;10.30;4.85;;;;;;;26.97;44.70;94478.16;4894970;29;20032;-77
2021/07/08 19:11:00;;;;;;;7.78;5.18;;;;;;;26.93;44.82;94484.84;4894947;29;20080;-77
2021/07/08 19:13:25;;;;;;;8.20;5.25;;;;;;;26.89;44.89;94484.88;4896198;29;20120;-77
2021/07/08 19:15:50;;;;;;;12.27;5.88;;;;;;;26.79;45.07;94483.78;4894931;29;20108;-77
2021/07/08 19:18:17;;;;;;;11.55;5.93;;;;;;;26.71;45.21;94495.19;4894610;29;20048;-76
2021/07/08 19:20:42;;;;;;;16.83;5.72;;;;;;;26.63;45.52;94488.19;4896616;29;20121;-77
2021/07/08 19:23:11;;;;;;;9.25;5.90;;;;;;;26.57;45.75;94494.06;4899632;29;20028;-77
2021/07/08 19:25:37;;;;;;;9.68;5.30;;;;;;;26.51;46.07;94489.41;4898309;29;20043;-77
2021/07/08 19:28:03;;;;;;;9.75;5.88;;;;;;;26.43;45.90;94485.94;4898225;29;20037;-77
2021/07/08 19:30:29;;;;;;;10.38;6.30;;;;;;;26.41;46.23;94486.34;4899914;29;20084;-76
2021/07/08 19:32:55;;;;;;;12.13;6.07;;;;;;;26.40;46.54;94487.53;4898481;29;20037;-77
2021/07/08 19:35:21;;;;;;;8.02;5.63;;;;;;;26.40;46.46;94494.94;4897860;29;20056;-77
2021/07/08 19:37:49;;;;;;;8.88;5.70;;;;;;;26.37;46.42;94493.00;4898190;29;20036;-76
2021/07/08 19:40:14;;;;;;;9.13;4.82;;;;;;;26.27;46.65;94502.03;4897985;29;20036;-76
2021/07/08 19:42:40;;;;;;;9.95;5.95;;;;;;;26.18;46.88;94497.78;4898019;29;20039;-76
2021/07/08 19:45:07;;;;;;;11.75;5.38;;;;;;;26.19;47.06;94502.06;4897937;29;20067;-76
2021/07/08 19:47:33;;;;;;;7.82;5.35;;;;;;;26.11;47.26;94492.34;4897714;29;20035;-76
2021/07/08 19:49:59;;;;;;;9.15;5.20;;;;;;;26.04;47.58;94500.59;4903569;29;20041;-79
2021/07/08 19:52:25;;;;;;;7.68;5.00;;;;;;;25.95;47.39;94498.28;4911008;29;20032;-80
2021/07/08 19:54:50;;;;;;;7.70;5.18;;;;;;;25.86;47.61;94497.88;4911574;29;20043;-79
2021/07/08 19:57:15;;;;;;;8.85;4.85;;;;;;;25.85;47.72;94498.28;4912081;29;20029;-80
2021/07/08 19:59:41;;;;;;;7.35;4.95;;;;;;;25.80;47.39;94491.28;4914133;29;20028;-80
2021/07/08 20:02:07;;;;;;;7.63;4.85;;;;;;;25.73;47.75;94497.53;4912937;29;20072;-80
2021/07/08 20:04:33;;;;;;;11.75;5.15;;;;;;;25.71;47.83;94504.56;4912901;29;20032;-79
2021/07/08 20:06:59;;;;;;;9.10;4.75;;;;;;;25.68;48.04;94506.13;4914217;29;20096;-80
2021/07/08 20:09:24;;;;;;;9.20;5.05;;;;;;;25.66;48.12;94491.31;4912706;29;20032;-80
2021/07/08 20:11:50;;;;;;;12.68;3.95;;;;;;;25.58;48.30;94488.59;4913532;29;20056;-80
2021/07/08 20:14:15;;;;;;;8.98;4.90;;;;;;;25.54;48.16;94496.00;4911871;29;20032;-80
2021/07/08 20:16:41;;;;;;;8.45;5.07;;;;;;;25.49;48.47;94490.97;4912616;29;20025;-80
2021/07/08 20:19:07;;;;;;;12.45;4.70;;;;;;;25.45;48.15;94478.53;4910720;29;20028;-80
2021/07/08 20:21:33;;;;;;;11.85;5.35;;;;;;;25.31;48.62;94480.09;4908813;29;20024;-81
2021/07/08 20:23:59;;;;;;;8.82;4.15;;;;;;;25.32;48.45;94483.59;4906302;29;20036;-81
2021/07/08 20:26:25;;;;;;;9.85;4.75;;;;;;;25.36;48.21;94476.97;4908748;29;20079;-80
2021/07/08 20:28:51;;;;;;;8.82;3.63;;;;;;;25.34;48.19;94482.03;4909140;29;20024;-81
2021/07/08 20:31:17;;;;;;;9.25;5.20;;;;;;;25.29;48.54;94470.75;4908781;29;20029;-80
2021/07/08 20:33:43;;;;;;;6.60;4.40;;;;;;;25.29;48.58;94487.13;4907724;29;20051;-80
2021/07/08 20:36:08;;;;;;;6.50;4.70;;;;;;;25.30;48.69;94491.38;4906923;29;20048;-81
2021/07/08 20:38:34;;;;;;;8.70;5.30;;;;;;;25.24;48.91;94488.28;4909872;29;20029;-81
2021/07/08 20:40:59;;;;;;;12.80;4.15;;;;;;;25.18;48.96;94484.38;4904989;29;20519;-81
2021/07/08 20:43:25;;;;;;;6.70;4.22;;;;;;;25.12;49.14;94485.94;4901708;29;20047;-80
2021/07/08 20:45:50;;;;;;;7.65;4.43;;;;;;;25.05;49.15;94488.66;4899676;29;20033;-79
2021/07/08 20:48:16;;;;;;;6.32;4.43;;;;;;;25.02;49.43;94498.41;4901721;29;20420;-79
2021/07/08 20:50:42;;;;;;;7.85;5.03;;;;;;;24.94;49.83;94492.16;4900393;29;20037;-79
2021/07/08 20:53:07;;;;;;;8.15;4.38;;;;;;;24.92;49.76;94494.50;4900869;29;20036;-80
2021/07/08 20:55:33;;;;;;;11.07;5.07;;;;;;;24.94;49.99;94505.81;4901439;29;20503;-80
2021/07/08 20:57:58;;;;;;;7.03;4.75;;;;;;;24.88;50.20;94501.91;4901636;29;20419;-80
2021/07/08 21:00:24;;;;;;;8.10;5.15;;;;;;;24.84;50.23;94490.22;4902066;29;20510;-80
2021/07/08 21:02:50;;;;;;;11.00;4.38;;;;;;;24.81;50.40;94499.16;4903258;29;20017;-80
2021/07/08 21:05:15;;;;;;;6.18;4.45;;;;;;;24.77;50.32;94503.84;4914047;29;20036;-80
2021/07/08 21:07:41;;;;;;;7.15;4.03;;;;;;;24.71;50.71;94500.75;4918387;29;20020;-80
2021/07/08 21:10:09;;;;;;;5.50;3.97;;;;;;;24.75;50.49;94489.81;4920545;29;20108;-80
2021/07/08 21:12:38;;;;;;;7.95;4.07;;;;;;;24.70;50.70;94482.81;4920516;29;20035;-80
2021/07/08 21:15:06;;;;;;;10.35;4.50;;;;;;;24.69;50.69;94502.28;4921677;29;20032;-80
2021/07/08 21:17:31;;;;;;;5.85;4.53;;;;;;;24.67;50.98;94490.97;4917561;29;20037;-80
2021/07/08 21:19:57;;;;;;;4.93;3.83;;;;;;;24.68;51.15;94490.59;4917791;29;20060;-80
2021/07/08 21:22:23;;;;;;;7.93;4.38;;;;;;;24.67;51.31;94499.97;4917834;29;20043;-80
2021/07/08 21:24:48;;;;;;;9.13;4.55;;;;;;;24.59;51.57;94510.06;4915654;29;20028;-80
2021/07/08 21:27:14;;;;;;;6.70;4.15;;;;;;;24.60;51.80;94508.88;4914989;29;20040;-80
2021/07/08 21:29:39;;;;;;;10.25;3.83;;;;;;;24.56;51.54;94501.88;4913721;29;20028;-80
2021/07/08 21:32:05;;;;;;;10.35;4.10;;;;;;;24.51;51.81;94507.72;4911232;29;20028;-80
2021/07/08 21:34:31;;;;;;;9.88;4.13;;;;;;;24.52;51.91;94503.81;4908095;29;20150;-80
2021/07/08 21:36:56;;;;;;;7.30;4.28;;;;;;;24.46;52.05;94502.59;4912833;29;20040;-80
2021/07/08 21:39:22;;;;;;;11.02;4.07;;;;;;;24.38;51.79;94507.25;4908274;29;20033;-80
2021/07/08 21:41:48;;;;;;;7.50;3.90;;;;;;;24.32;52.18;94504.16;4908447;29;20504;-80
2021/07/08 21:44:16;;;;;;;6.88;3.97;;;;;;;24.33;52.28;94510.38;4908700;29;20072;-80
2021/07/08 21:46:45;;;;;;;7.63;4.50;;;;;;;24.31;52.31;94510.75;4908156;29;20469;-80
2021/07/08 21:49:11;;;;;;;7.38;4.70;;;;;;;24.27;52.34;94520.09;4909862;29;20496;-81
2021/07/08 21:51:40;;;;;;;7.32;4.57;;;;;;;24.19;52.44;94522.00;4908026;29;20024;-80
2021/07/08 21:54:06;;;;;;;6.13;3.83;;;;;;;24.13;52.63;94516.13;4907789;29;20032;-80
2021/07/08 21:56:33;;;;;;;11.32;4.50;;;;;;;24.09;52.78;94522.75;4906447;29;20053;-80
2021/07/08 21:58:59;;;;;;;4.82;3.97;;;;;;;24.06;52.91;94526.22;4906174;29;20033;-80
2021/07/08 22:01:25;;;;;;;8.93;4.38;;;;;;;24.00;53.05;94518.44;4900372;29;20052;-80
2021/07/08 22:03:55;;;;;;;12.38;4.85;;;;;;;23.94;53.05;94522.69;4899246;29;20035;-80
2021/07/08 22:06:22;;;;;;;10.20;4.68;;;;;;;23.94;53.37;94519.19;4899139;29;20036;-80
2021/07/08 22:08:47;;;;;;;7.03;4.47;;;;;;;23.89;53.40;94514.09;4902205;29;20032;-80
2021/07/08 22:11:14;;;;;;;6.13;4.53;;;;;;;23.86;53.56;94512.16;4900235;29;20029;-80
2021/07/08 22:13:39;;;;;;;8.25;4.70;;;;;;;23.78;53.36;94514.06;4900056;29;20546;-80
2021/07/08 22:16:05;;;;;;;6.57;3.88;;;;;;;23.75;53.65;94509.31;4900085;29;20028;-80
2021/07/08 22:18:30;;;;;;;8.55;4.00;;;;;;;23.70;53.41;94502.31;4900558;29;20499;-80
2021/07/08 22:20:56;;;;;;;8.45;4.07;;;;;;;23.65;53.10;94502.69;4903220;29;20095;-80
2021/07/08 22:23:21;;;;;;;7.75;4.35;;;;;;;23.63;53.22;94494.91;4900047;29;20028;-80
2021/07/08 22:25:46;;;;;;;12.32;4.15;;;;;;;23.57;53.33;94501.06;4898148;29;20043;-80
2021/07/08 22:28:12;;;;;;;7.07;4.32;;;;;;;23.50;53.83;94490.94;4898053;29;20028;-80
2021/07/08 22:30:37;;;;;;;5.78;4.00;;;;;;;23.48;53.43;94492.47;4898496;29;20032;-80
2021/07/08 22:33:04;;;;;;;10.40;4.35;;;;;;;23.41;53.46;94482.34;4898453;29;20132;-80
2021/07/08 22:35:29;;;;;;;6.75;3.92;;;;;;;23.38;53.75;94481.13;4896916;29;20601;-80
2021/07/08 22:37:55;;;;;;;10.68;3.97;;;;;;;23.40;53.49;94478.81;4896954;29;20144;-75
2021/07/08 22:40:20;;;;;;;5.65;3.88;;;;;;;23.34;54.05;94488.50;4893214;29;20059;-75
2021/07/08 22:42:46;;;;;;;7.20;4.35;;;;;;;23.33;53.77;94489.69;4892556;29;20394;-75
2021/07/08 22:45:12;;;;;;;5.75;4.25;;;;;;;23.30;53.91;94495.09;4892933;29;20472;-75
2021/07/08 22:47:37;;;;;;;10.55;4.03;;;;;;;23.27;54.08;94487.69;4894078;29;20033;-75
2021/07/08 22:50:04;;;;;;;7.25;3.85;;;;;;;23.26;54.06;94486.91;4894039;29;20427;-75
2021/07/08 22:52:30;;;;;;;8.20;3.42;;;;;;;23.23;53.94;94482.22;4892755;29;20025;-75
2021/07/08 22:54:55;;;;;;;6.97;4.10;;;;;;;23.19;53.84;94484.16;4893661;29;20091;-75
2021/07/08 22:57:21;;;;;;;6.18;3.15;;;;;;;23.14;53.57;94485.28;4892910;29;20061;-74
2021/07/08 22:59:46;;;;;;;8.27;3.85;;;;;;;23.01;53.44;94479.34;4892670;29;20500;-74
2021/07/08 23:02:11;;;;;;;4.75;3.30;;;;;;;23.08;53.13;94486.00;4892527;29;20033;-74
2021/07/08 23:04:37;;;;;;;4.30;3.10;;;;;;;23.10;53.03;94483.69;4892457;29;20081;-74